createdAt,value
2023-05-21T00:18:29.637Z,229
2023-05-21T00:38:29.638Z,229
2023-05-21T00:58:29.628Z,231
2023-05-21T01:18:29.663Z,229
2023-05-21T01:38:29.675Z,230
2023-05-21T01:58:29.650Z,231
2023-05-21T02:18:29.671Z,231
2023-05-21T02:38:29.652Z,232
2023-05-21T02:58:29.649Z,232
2023-05-21T03:18:29.650Z,232
2023-05-21T03:38:29.648Z,231
2023-05-21T03:58:29.652Z,226
2023-05-21T04:18:29.667Z,229
2023-05-21T04:38:29.676Z,230
2023-05-21T04:58:29.657Z,229
2023-05-21T05:18:29.651Z,233
2023-05-21T05:38:29.667Z,233
2023-05-21T05:58:29.659Z,228
2023-05-21T06:18:29.668Z,231
2023-05-21T06:38:29.678Z,232
2023-05-21T06:58:29.651Z,227
2023-05-21T07:18:29.694Z,232
2023-05-21T07:38:29.672Z,233
2023-05-21T07:58:29.656Z,231
2023-05-21T08:18:29.681Z,229
2023-05-21T08:38:30.521Z,230
2023-05-21T08:58:29.646Z,227
2023-05-21T09:18:29.649Z,225
2023-05-21T09:38:29.778Z,224
2023-05-21T09:58:29.634Z,224
2023-05-21T10:18:29.622Z,224
2023-05-21T10:38:29.616Z,221
2023-05-21T10:58:30.207Z,218
2023-05-21T11:18:29.610Z,217
2023-05-21T11:38:29.627Z,214
2023-05-21T11:58:29.590Z,214
2023-05-21T12:18:29.577Z,216
2023-05-21T12:38:29.568Z,214
2023-05-21T12:58:29.569Z,210
2023-05-21T13:18:29.585Z,211
2023-05-21T13:38:29.544Z,202
2023-05-21T13:58:29.332Z,187
2023-05-21T14:18:29.517Z,179
2023-05-21T14:38:29.517Z,180
2023-05-21T14:58:29.509Z,177
2023-05-21T15:18:29.506Z,169
2023-05-21T15:38:29.548Z,168
2023-05-21T15:58:29.477Z,182
2023-05-21T16:18:29.479Z,193
2023-05-21T16:38:28.966Z,197
2023-05-21T16:58:29.448Z,211
2023-05-21T17:18:29.446Z,208
2023-05-21T17:38:29.426Z,213
2023-05-21T17:58:29.414Z,219
2023-05-21T18:18:29.403Z,216
2023-05-21T18:38:29.419Z,218
2023-05-21T18:58:29.208Z,212
2023-05-21T19:18:29.400Z,216
2023-05-21T19:38:29.385Z,222
2023-05-21T19:58:29.578Z,221
2023-05-21T20:18:29.371Z,225
2023-05-21T20:38:29.376Z,227
2023-05-21T20:58:29.468Z,227
2023-05-21T21:18:29.362Z,228
2023-05-21T21:38:29.347Z,225
2023-05-21T21:58:29.345Z,228
2023-05-21T22:18:39.314Z,224
2023-05-21T22:38:29.336Z,227
2023-05-21T22:58:29.364Z,227
2023-05-21T23:18:29.344Z,225
2023-05-21T23:38:29.326Z,228
2023-05-21T23:58:29.323Z,228
